createdAt,value
2022-08-23T00:00:14.140Z,98837.91
2022-08-23T00:01:24.365Z,98843.97
2022-08-23T00:02:29.996Z,98842.78
2022-08-23T00:03:34.777Z,98857.09
2022-08-23T00:04:56.449Z,98847.34
2022-08-23T00:06:07.717Z,98844.25
2022-08-23T00:07:15.398Z,98846.13
2022-08-23T00:08:19.943Z,98841.75
2022-08-23T00:09:26.895Z,98846.59
2022-08-23T00:10:31.093Z,98846.59
2022-08-23T00:11:46.454Z,98849.13
2022-08-23T00:12:50.824Z,98849.97
2022-08-23T00:13:55.458Z,98830.13
2022-08-23T00:14:59.555Z,98858.69
2022-08-23T00:16:03.690Z,98861.59
2022-08-23T00:17:09.851Z,98864.09
2022-08-23T00:18:14.746Z,98863.06
2022-08-23T00:19:21.320Z,98863.25
2022-08-23T00:20:25.194Z,98870.00
2022-08-23T00:21:29.614Z,98872.53
2022-08-23T00:22:35.183Z,98869.84
2022-08-23T00:23:39.332Z,98853.31
2022-08-23T00:24:43.633Z,98865.06
2022-08-23T00:25:47.488Z,98873.63
2022-08-23T00:27:07.853Z,98863.84
2022-08-23T00:28:12.546Z,98868.06
2022-08-23T00:29:19.424Z,98861.84
2022-08-23T00:30:23.457Z,98856.44
2022-08-23T00:31:27.234Z,98859.13
2022-08-23T00:32:36.173Z,98833.66
2022-08-23T00:33:41.020Z,98863.69
2022-08-23T00:34:45.201Z,98859.31
2022-08-23T00:35:49.200Z,98857.81
2022-08-23T00:36:53.458Z,98862.56
2022-08-23T00:38:32.296Z,98865.47
2022-08-23T00:39:25.952Z,98875.22
2022-08-23T00:40:29.823Z,98881.66
2022-08-23T00:41:35.562Z,98878.94
2022-08-23T00:43:49.558Z,98883.13
2022-08-23T00:45:12.844Z,98874.84
2022-08-23T00:47:04.196Z,98882.59
2022-08-23T00:48:08.814Z,98886.28
2022-08-23T00:49:16.556Z,98883.78
2022-08-23T00:50:57.303Z,98885.66
2022-08-23T00:52:20.631Z,98892.06
2022-08-23T00:53:34.273Z,98896.44
2022-08-23T00:54:42.164Z,98878.28
2022-08-23T00:55:51.006Z,98891.41
2022-08-23T00:57:00.396Z,98892.44
2022-08-23T00:58:04.761Z,98889.06
2022-08-23T00:59:09.728Z,98900.69
2022-08-23T01:00:15.583Z,98889.06
2022-08-23T01:01:20.109Z,98892.13
2022-08-23T01:02:25.148Z,98894.28
2022-08-23T01:03:38.944Z,98886.72
2022-08-23T01:04:56.838Z,98895.16
2022-08-23T01:06:21.502Z,98889.75
2022-08-23T01:07:46.246Z,98889.06
2022-08-23T01:09:00.258Z,98884.66
2022-08-23T01:10:21.012Z,98894.63
2022-08-23T01:11:33.479Z,98890.44
2022-08-23T01:12:46.544Z,98888.78
2022-08-23T01:14:22.510Z,98886.06
2022-08-23T01:15:46.155Z,98890.44
2022-08-23T01:16:58.088Z,98889.41
2022-08-23T01:18:09.884Z,98883.38
2022-08-23T01:19:33.490Z,98882.34
2022-08-23T01:20:52.870Z,98882.16
2022-08-23T01:22:22.015Z,98873.41
2022-08-23T01:23:49.061Z,98880.47
2022-08-23T01:25:07.497Z,98871.91
2022-08-23T01:26:21.724Z,98853.91
2022-08-23T01:27:26.049Z,98852.91
2022-08-23T01:28:30.237Z,98859.44
2022-08-23T01:29:34.476Z,98866.50
2022-08-23T01:30:42.238Z,98861.47
2022-08-23T01:31:46.448Z,98861.00
2022-08-23T01:32:56.388Z,98861.81
2022-08-23T01:34:09.239Z,98861.00
2022-08-23T01:35:14.815Z,98861.00
2022-08-23T01:36:20.127Z,98861.19
2022-08-23T01:37:23.971Z,98865.94
2022-08-23T01:38:28.334Z,98869.84
2022-08-23T01:39:37.842Z,98862.59
2022-08-23T01:40:43.198Z,98870.69
2022-08-23T01:41:47.460Z,98870.84
2022-08-23T01:42:51.677Z,98865.44
2022-08-23T01:43:55.657Z,98856.25
2022-08-23T01:45:01.689Z,98872.03
2022-08-23T01:46:18.388Z,98874.56
2022-08-23T01:47:22.230Z,98880.34
2022-08-23T01:48:26.275Z,98884.69
2022-08-23T01:49:30.142Z,98884.88
2022-08-23T01:50:35.252Z,98889.06
2022-08-23T01:51:39.443Z,98880.78
2022-08-23T01:52:46.857Z,98886.19
2022-08-23T01:53:52.149Z,98877.75
2022-08-23T01:54:57.391Z,98884.63
2022-08-23T01:56:02.821Z,98877.75
2022-08-23T01:57:08.514Z,98875.88
2022-08-23T01:58:13.478Z,98875.69
2022-08-23T01:59:18.326Z,98873.00
2022-08-23T02:00:30.731Z,98878.03
2022-08-23T02:01:34.733Z,98873.66
2022-08-23T02:02:39.047Z,98877.88
2022-08-23T02:03:43.010Z,98859.22
2022-08-23T02:04:47.320Z,98871.97
2022-08-23T02:06:56.221Z,98875.50
2022-08-23T02:08:22.849Z,98874.31
2022-08-23T02:09:26.845Z,98867.91
2022-08-23T02:10:31.062Z,98878.69
2022-08-23T02:11:40.771Z,98884.09
2022-08-23T02:12:45.162Z,98879.34
2022-08-23T02:13:52.372Z,98873.94
2022-08-23T02:14:57.121Z,98881.03
2022-08-23T02:16:01.200Z,98880.19
2022-08-23T02:17:05.637Z,98871.78
2022-08-23T02:18:09.735Z,98881.22
2022-08-23T02:19:16.616Z,98881.41
2022-08-23T02:20:20.693Z,98864.25
2022-08-23T02:21:25.216Z,98869.91
2022-08-23T02:22:29.137Z,98873.31
2022-08-23T02:23:33.586Z,98871.44
2022-08-23T02:24:45.021Z,98873.50
2022-08-23T02:25:51.785Z,98869.91
2022-08-23T02:27:00.254Z,98874.31
2022-08-23T02:28:06.522Z,98874.31
2022-08-23T02:29:10.865Z,98874.97
2022-08-23T02:30:15.449Z,98877.03
2022-08-23T02:31:21.548Z,98879.72
2022-08-23T02:32:28.704Z,98865.44
2022-08-23T02:33:32.449Z,98870.84
2022-08-23T02:34:36.673Z,98879.22
2022-08-23T02:35:42.223Z,98885.13
2022-08-23T02:36:46.485Z,98882.59
2022-08-23T02:37:50.962Z,98881.75
2022-08-23T02:38:56.667Z,98871.66
2022-08-23T02:40:00.637Z,98884.28
2022-08-23T02:41:05.048Z,98885.13
2022-08-23T02:42:11.912Z,98882.59
2022-08-23T02:43:15.982Z,98857.06
2022-08-23T02:44:21.182Z,98854.53
2022-08-23T02:45:25.502Z,98874.13
2022-08-23T02:46:29.657Z,98881.41
2022-08-23T02:47:33.493Z,98863.41
2022-08-23T02:48:37.861Z,98879.53
2022-08-23T02:49:41.806Z,98869.66
2022-08-23T02:50:46.822Z,98865.28
2022-08-23T02:51:51.089Z,98879.72
2022-08-23T02:52:55.825Z,98879.72
2022-08-23T02:54:00.063Z,98882.59
2022-08-23T02:55:04.693Z,98875.31
2022-08-23T02:56:21.317Z,98880.72
2022-08-23T02:57:25.500Z,98883.41
2022-08-23T02:58:31.231Z,98883.41
2022-08-23T02:59:35.531Z,98867.97
2022-08-23T03:00:39.622Z,98876.34
2022-08-23T03:01:45.747Z,98878.88
2022-08-23T03:02:50.092Z,98885.47
2022-08-23T03:03:55.386Z,98863.75
2022-08-23T03:04:59.227Z,98882.44
2022-08-23T03:06:25.660Z,98885.13
2022-08-23T03:07:27.231Z,98883.06
2022-08-23T03:08:31.059Z,98890.97
2022-08-23T03:09:35.216Z,98886.13
2022-08-23T03:10:44.268Z,98885.13
2022-08-23T03:11:50.230Z,98885.78
2022-08-23T03:12:54.229Z,98885.78
2022-08-23T03:13:58.530Z,98902.31
2022-08-23T03:15:03.293Z,98894.59
2022-08-23T03:16:11.546Z,98896.81
2022-08-23T03:17:15.379Z,98902.88
2022-08-23T03:18:19.541Z,98896.16
2022-08-23T03:19:24.572Z,98891.59
2022-08-23T03:20:28.526Z,98909.81
2022-08-23T03:21:32.477Z,98903.59
2022-08-23T03:22:36.459Z,98907.13
2022-08-23T03:23:41.625Z,98907.97
2022-08-23T03:24:46.816Z,98908.34
2022-08-23T03:25:50.676Z,98895.75
2022-08-23T03:26:54.672Z,98913.03
2022-08-23T03:27:58.585Z,98890.41
2022-08-23T03:29:03.009Z,98911.19
2022-08-23T03:30:09.546Z,98907.84
2022-08-23T03:31:21.901Z,98904.81
2022-08-23T03:32:26.693Z,98908.50
2022-08-23T03:33:30.899Z,98910.84
2022-08-23T03:34:35.136Z,98908.97
2022-08-23T03:35:39.030Z,98905.25
2022-08-23T03:36:43.124Z,98921.25
2022-08-23T03:37:47.043Z,98921.25
2022-08-23T03:38:50.843Z,98915.88
2022-08-23T03:39:54.793Z,98915.88
2022-08-23T03:40:58.935Z,98922.94
2022-08-23T03:42:03.102Z,98914.00
2022-08-23T03:43:07.116Z,98916.69
2022-08-23T03:44:11.134Z,98914.38
2022-08-23T03:45:15.138Z,98915.22
2022-08-23T03:46:25.729Z,98916.91
2022-08-23T03:47:29.785Z,98914.00
2022-08-23T03:48:33.891Z,98923.81
2022-08-23T03:49:38.091Z,98922.09
2022-08-23T03:50:42.071Z,98922.59
2022-08-23T03:51:45.978Z,98920.25
2022-08-23T03:52:50.108Z,98925.47
2022-08-23T03:53:54.606Z,98926.13
2022-08-23T03:54:59.025Z,98922.09
2022-08-23T03:56:03.857Z,98931.53
2022-08-23T03:57:10.068Z,98911.69
2022-08-23T03:58:14.019Z,98919.91
2022-08-23T03:59:17.962Z,98923.25
2022-08-23T04:00:22.231Z,98915.16
2022-08-23T04:01:28.811Z,98920.53
2022-08-23T04:02:33.372Z,98903.22
2022-08-23T04:03:37.281Z,98920.34
2022-08-23T04:04:41.276Z,98922.91
2022-08-23T04:05:45.102Z,98914.81
2022-08-23T04:06:48.966Z,98924.56
2022-08-23T04:07:52.959Z,98921.19
2022-08-23T04:08:57.272Z,98925.41
2022-08-23T04:10:01.218Z,98931.84
2022-08-23T04:11:06.545Z,98927.28
2022-08-23T04:12:17.610Z,98929.13
2022-08-23T04:13:23.336Z,98929.13
2022-08-23T04:14:27.296Z,98925.41
2022-08-23T04:15:31.828Z,98918.69
2022-08-23T04:16:40.558Z,98931.28
2022-08-23T04:17:44.414Z,98908.16
2022-08-23T04:18:48.826Z,98927.09
2022-08-23T04:19:53.172Z,98927.09
2022-08-23T04:21:00.712Z,98937.69
2022-08-23T04:22:04.636Z,98937.69
2022-08-23T04:23:08.878Z,98925.75
2022-08-23T04:24:12.979Z,98942.06
2022-08-23T04:25:34.730Z,98944.75
2022-08-23T04:26:41.066Z,98933.63
2022-08-23T04:27:47.583Z,98932.78
2022-08-23T04:28:51.494Z,98931.75
2022-08-23T04:29:55.304Z,98941.34
2022-08-23T04:31:01.045Z,98933.25
2022-08-23T04:32:07.677Z,98941.34
2022-08-23T04:33:17.810Z,98940.34
2022-08-23T04:34:22.106Z,98943.91
2022-08-23T04:35:33.188Z,98949.28
2022-08-23T04:36:41.964Z,98915.72
2022-08-23T04:37:54.425Z,98956.38
2022-08-23T04:38:58.158Z,98952.00
2022-08-23T04:40:20.561Z,98950.97
2022-08-23T04:41:42.841Z,98946.44
2022-08-23T04:42:46.659Z,98944.56
2022-08-23T04:43:50.971Z,98949.97
2022-08-23T04:44:55.239Z,98945.75
2022-08-23T04:45:59.239Z,98919.63
2022-08-23T04:47:03.666Z,98951.66
2022-08-23T04:48:12.059Z,98947.09
2022-08-23T04:49:17.682Z,98948.56
2022-08-23T04:50:22.234Z,98952.09
2022-08-23T04:51:26.128Z,98956.47
2022-08-23T04:52:29.842Z,98951.09
2022-08-23T04:53:35.778Z,98959.03
2022-08-23T04:54:39.587Z,98955.50
2022-08-23T04:55:43.570Z,98951.75
2022-08-23T04:56:50.901Z,98963.22
2022-08-23T04:57:56.111Z,98955.75
2022-08-23T04:59:00.113Z,98959.66
2022-08-23T05:00:06.552Z,98960.13
2022-08-23T05:01:11.741Z,98962.81
2022-08-23T05:02:15.914Z,98955.56
2022-08-23T05:03:20.174Z,98970.00
2022-08-23T05:04:24.370Z,98965.50
2022-08-23T05:05:28.604Z,98956.72
2022-08-23T05:06:32.807Z,98959.41
2022-08-23T05:07:42.061Z,98967.16
2022-08-23T05:08:47.278Z,98968.00
2022-08-23T05:09:51.414Z,98967.16
2022-08-23T05:10:55.511Z,98970.50
2022-08-23T05:11:59.565Z,98975.06
2022-08-23T05:13:03.467Z,98968.19
2022-08-23T05:14:07.426Z,98975.19
2022-08-23T05:15:12.433Z,98960.84
2022-08-23T05:16:17.538Z,98959.94
2022-08-23T05:17:21.416Z,98971.09
2022-08-23T05:18:50.476Z,98967.66
2022-08-23T05:20:34.918Z,98978.59
2022-08-23T05:22:24.176Z,98975.16
2022-08-23T05:26:24.836Z,98979.53
2022-08-23T05:29:49.974Z,98983.53
2022-08-23T05:31:36.759Z,98982.88
2022-08-23T05:33:11.494Z,98979.53
2022-08-23T05:34:31.170Z,98989.69
2022-08-23T05:36:05.365Z,98985.31
2022-08-23T05:39:57.100Z,98989.94
2022-08-23T05:41:07.090Z,98993.50
2022-08-23T05:42:16.203Z,98990.13
2022-08-23T05:43:21.297Z,98987.91
2022-08-23T05:44:25.264Z,98984.06
2022-08-23T05:45:29.647Z,98982.41
2022-08-23T05:46:34.146Z,98987.59
2022-08-23T05:47:39.482Z,98988.75
2022-08-23T05:48:47.797Z,98995.81
2022-08-23T05:49:52.046Z,99001.03
2022-08-23T05:50:56.098Z,99001.88
2022-08-23T05:51:59.741Z,98989.09
2022-08-23T05:53:03.721Z,98998.63
2022-08-23T05:54:09.691Z,99004.88
2022-08-23T05:55:13.952Z,98996.56
2022-08-23T05:56:32.723Z,99001.78
2022-08-23T05:57:40.993Z,98994.16
2022-08-23T05:58:46.654Z,98999.38
2022-08-23T05:59:50.356Z,99000.88
2022-08-23T06:00:55.598Z,98995.66
2022-08-23T06:02:00.014Z,99002.22
2022-08-23T06:03:04.246Z,98988.91
2022-08-23T06:04:12.716Z,99007.06
2022-08-23T06:05:17.970Z,99006.69
2022-08-23T06:06:22.620Z,99002.31
2022-08-23T06:07:38.835Z,99011.72
2022-08-23T06:08:47.225Z,99008.00
2022-08-23T06:09:51.045Z,99008.16
2022-08-23T06:11:26.664Z,99004.91
2022-08-23T06:12:32.523Z,99010.97
2022-08-23T06:13:48.955Z,99008.09
2022-08-23T06:14:53.092Z,99018.34
2022-08-23T06:15:58.261Z,99009.69
2022-08-23T06:17:02.605Z,98982.44
2022-08-23T06:18:07.021Z,99010.22
2022-08-23T06:19:19.635Z,99009.28
2022-08-23T06:20:45.656Z,99005.91
2022-08-23T06:22:39.836Z,99003.72
2022-08-23T06:24:11.796Z,99010.22
2022-08-23T06:25:35.266Z,99014.50
2022-08-23T06:30:39.727Z,99015.97
2022-08-23T06:31:57.353Z,99014.41
2022-08-23T06:33:01.231Z,99010.63
2022-08-23T06:34:05.251Z,99017.16
2022-08-23T06:35:33.078Z,99027.41
2022-08-23T06:36:34.001Z,99016.22
2022-08-23T06:37:39.453Z,99010.63
2022-08-23T06:38:45.284Z,99024.97
2022-08-23T06:39:49.719Z,99032.34
2022-08-23T06:41:00.664Z,99030.13
2022-08-23T06:42:37.572Z,99028.09
2022-08-23T06:43:39.500Z,99030.03
2022-08-23T06:44:44.328Z,99023.09
2022-08-23T06:45:54.878Z,99028.59
2022-08-23T06:47:04.979Z,99040.34
2022-08-23T06:48:09.968Z,99027.47
2022-08-23T06:49:13.962Z,99031.69
2022-08-23T06:50:19.731Z,99030.69
2022-08-23T06:51:29.297Z,99029.25
2022-08-23T06:52:33.101Z,99030.56
2022-08-23T06:53:37.297Z,99035.16
2022-08-23T06:54:44.510Z,99030.09
2022-08-23T06:55:48.260Z,99031.09
2022-08-23T06:56:52.652Z,99020.19
2022-08-23T06:57:56.539Z,99032.53
2022-08-23T06:59:00.396Z,99033.13
2022-08-23T07:00:05.613Z,99035.41
2022-08-23T07:01:46.508Z,99031.25
2022-08-23T07:02:50.785Z,99028.13
2022-08-23T07:03:59.258Z,99032.13
2022-08-23T07:05:03.096Z,99024.19
2022-08-23T07:06:08.065Z,99028.34
2022-08-23T07:07:15.187Z,99028.31
2022-08-23T07:08:18.961Z,99027.59
2022-08-23T07:09:23.779Z,99028.75
2022-08-23T07:10:27.997Z,99028.88
2022-08-23T07:11:33.135Z,99027.94
2022-08-23T07:12:43.198Z,99031.28
2022-08-23T07:13:47.228Z,99033.44
2022-08-23T07:14:51.112Z,99033.53
2022-08-23T07:16:00.035Z,99030.28
2022-08-23T07:17:05.165Z,99032.25
2022-08-23T07:18:13.468Z,99036.25
2022-08-23T07:19:20.702Z,99043.44
2022-08-23T07:20:24.883Z,99044.69
2022-08-23T07:21:28.810Z,99034.47
2022-08-23T07:22:32.873Z,99036.34
2022-08-23T07:23:37.023Z,99037.53
2022-08-23T07:24:40.829Z,99036.47
2022-08-23T07:25:44.702Z,99044.81
2022-08-23T07:26:52.269Z,99041.22
2022-08-23T07:27:56.153Z,99051.00
2022-08-23T07:29:00.071Z,99048.19
2022-08-23T07:30:07.234Z,99049.84
2022-08-23T07:31:31.100Z,99038.56
2022-08-23T07:32:35.010Z,99050.25
2022-08-23T07:33:40.319Z,99054.41
2022-08-23T07:34:45.012Z,99057.50
2022-08-23T07:35:53.968Z,99064.22
2022-08-23T07:36:57.897Z,99053.16
2022-08-23T07:38:02.361Z,99063.53
2022-08-23T07:39:08.119Z,99062.47
2022-08-23T07:40:17.736Z,99069.09
2022-08-23T07:41:32.897Z,99060.44
2022-08-23T07:42:37.016Z,99066.91
2022-08-23T07:43:42.506Z,99063.94
2022-08-23T07:44:46.293Z,99063.94
2022-08-23T07:45:50.005Z,99063.38
2022-08-23T07:46:54.018Z,99060.69
2022-08-23T07:47:57.833Z,99066.13
2022-08-23T07:49:03.525Z,99069.34
2022-08-23T07:50:08.591Z,99063.88
2022-08-23T07:51:15.079Z,99065.44
2022-08-23T07:52:18.893Z,99061.06
2022-08-23T07:53:37.311Z,99050.44
2022-08-23T07:54:41.721Z,99064.81
2022-08-23T07:55:53.626Z,99064.41
2022-08-23T07:56:57.454Z,99059.22
2022-08-23T07:58:01.488Z,99062.41
2022-08-23T07:59:07.382Z,99055.75
2022-08-23T08:00:11.934Z,99065.16
2022-08-23T08:01:24.931Z,99061.22
2022-08-23T08:02:28.860Z,99070.31
2022-08-23T08:03:33.168Z,99065.56
2022-08-23T08:04:37.631Z,99067.47
2022-08-23T08:05:42.181Z,99051.47
2022-08-23T08:07:10.441Z,99066.69
2022-08-23T08:08:14.262Z,99057.56
2022-08-23T08:09:20.577Z,99052.53
2022-08-23T08:10:24.627Z,99060.19
2022-08-23T08:11:34.880Z,99067.56
2022-08-23T08:12:39.946Z,99070.16
2022-08-23T08:13:45.933Z,99062.41
2022-08-23T08:14:51.339Z,99059.94
2022-08-23T08:15:55.623Z,99075.06
2022-08-23T08:17:00.707Z,99079.41
2022-08-23T08:18:05.150Z,99073.06
2022-08-23T08:19:15.571Z,99074.56
2022-08-23T08:20:28.357Z,99072.72
2022-08-23T08:21:33.309Z,99068.59
2022-08-23T08:22:37.362Z,99070.78
2022-08-23T08:23:42.117Z,99074.00
2022-08-23T08:24:45.924Z,99051.03
2022-08-23T08:25:49.733Z,99071.41
2022-08-23T08:26:53.600Z,99085.91
2022-08-23T08:27:59.124Z,99075.16
2022-08-23T08:29:04.017Z,99082.53
2022-08-23T08:30:11.814Z,99085.84
2022-08-23T08:31:15.734Z,99088.69
2022-08-23T08:32:19.813Z,99088.28
2022-08-23T08:33:24.569Z,99088.72
2022-08-23T08:34:34.640Z,99083.22
2022-08-23T08:35:38.859Z,99099.28
2022-08-23T08:36:46.414Z,99080.31
2022-08-23T08:37:50.716Z,99090.28
2022-08-23T08:38:58.803Z,99092.97
2022-08-23T08:40:05.752Z,99098.69
2022-08-23T08:41:20.025Z,99095.72
2022-08-23T08:43:19.931Z,99095.13
2022-08-23T08:44:49.935Z,99101.06
2022-08-23T08:46:12.834Z,99088.91
2022-08-23T08:47:26.286Z,99088.31
2022-08-23T08:48:40.962Z,99083.94
2022-08-23T08:49:54.075Z,99087.66
2022-08-23T08:51:14.349Z,99102.78
2022-08-23T08:52:26.188Z,99085.31
2022-08-23T08:53:44.557Z,99097.28
2022-08-23T08:54:56.150Z,99094.59
2022-08-23T08:56:09.696Z,99094.97
2022-08-23T08:57:22.650Z,99090.59
2022-08-23T08:58:51.154Z,99090.31
2022-08-23T09:00:30.488Z,99091.53
2022-08-23T09:01:39.910Z,99088.75
2022-08-23T09:02:45.483Z,99078.06
2022-08-23T09:03:50.954Z,99089.94
2022-08-23T09:04:56.201Z,99090.84
2022-08-23T09:06:26.268Z,99100.91
2022-08-23T09:08:00.993Z,99096.94
2022-08-23T09:09:27.114Z,99091.53
2022-08-23T09:11:07.584Z,99099.59
2022-08-23T09:12:42.015Z,99090.88
2022-08-23T09:14:40.621Z,99095.03
2022-08-23T09:16:31.185Z,99089.06
2022-08-23T09:17:47.512Z,99094.13
2022-08-23T09:18:54.836Z,99093.09
2022-08-23T09:20:04.926Z,99094.31
2022-08-23T09:21:11.147Z,99094.34
2022-08-23T09:22:27.833Z,99093.66
2022-08-23T09:23:41.594Z,99096.94
2022-08-23T09:24:45.486Z,99094.94
2022-08-23T09:26:03.994Z,99093.09
2022-08-23T09:27:10.785Z,99090.22
2022-08-23T09:28:16.965Z,99096.34
2022-08-23T09:29:36.460Z,99090.94
2022-08-23T09:30:59.427Z,99084.06
2022-08-23T09:32:33.158Z,99092.50
2022-08-23T09:33:48.865Z,99095.88
2022-08-23T09:34:52.947Z,99091.72
2022-08-23T09:36:29.030Z,99090.25
2022-08-23T09:38:11.505Z,99091.72
2022-08-23T09:39:31.440Z,99094.44
2022-08-23T09:40:46.160Z,99082.97
2022-08-23T09:41:50.744Z,99088.19
2022-08-23T09:43:08.287Z,99102.28
2022-08-23T09:44:29.859Z,99099.78
2022-08-23T09:45:53.203Z,99100.84
2022-08-23T09:47:17.300Z,99089.31
2022-08-23T09:48:45.956Z,99099.00
2022-08-23T09:49:51.546Z,99097.66
2022-08-23T09:50:56.317Z,99095.44
2022-08-23T09:52:26.513Z,99096.53
2022-08-23T09:53:30.697Z,99090.31
2022-08-23T09:54:59.246Z,99084.31
2022-08-23T09:57:21.832Z,99089.59
2022-08-23T09:59:21.944Z,99099.16
2022-08-23T10:01:36.755Z,99096.63
2022-08-23T10:05:52.956Z,99097.22
2022-08-23T10:10:52.017Z,99095.88
2022-08-23T10:11:59.317Z,99100.41
2022-08-23T10:13:05.938Z,99097.44
2022-08-23T10:14:10.448Z,99101.72
2022-08-23T10:15:15.995Z,99098.00
2022-08-23T10:16:46.507Z,99102.84
2022-08-23T10:18:16.081Z,99100.59
2022-08-23T10:20:01.731Z,99098.06
2022-08-23T10:21:37.990Z,99103.75
2022-08-23T10:22:56.051Z,99101.66
2022-08-23T10:24:28.533Z,99098.00
2022-08-23T10:25:43.321Z,99095.84
2022-08-23T10:27:47.307Z,99098.53
2022-08-23T10:29:38.017Z,99103.03
2022-08-23T10:31:01.899Z,99096.72
2022-08-23T10:32:37.313Z,99090.03
2022-08-23T10:33:59.410Z,99098.75
2022-08-23T10:35:15.395Z,99089.88
2022-08-23T10:36:45.590Z,99100.81
2022-08-23T10:38:22.494Z,99102.03
2022-08-23T10:39:32.102Z,99094.66
2022-08-23T10:41:01.631Z,99101.53
2022-08-23T10:42:33.196Z,99107.50
2022-08-23T10:44:35.393Z,99100.38
2022-08-23T10:45:44.269Z,99092.44
2022-08-23T10:47:42.523Z,99109.91
2022-08-23T10:49:00.406Z,99105.56
2022-08-23T10:50:22.445Z,99109.53
2022-08-23T10:51:33.608Z,99104.88
2022-08-23T10:52:57.875Z,99109.28
2022-08-23T10:55:09.781Z,99094.03
2022-08-23T10:56:51.146Z,99104.41
2022-08-23T10:59:28.778Z,99107.00
2022-08-23T11:01:04.940Z,99102.88
2022-08-23T11:11:53.895Z,99111.47
2022-08-23T11:14:12.419Z,99109.16
2022-08-23T11:16:45.512Z,99109.91
2022-08-23T11:18:45.687Z,99110.16
2022-08-23T11:20:22.665Z,99118.59
2022-08-23T11:23:25.511Z,99119.25
2022-08-23T11:25:38.655Z,99113.13
2022-08-23T11:34:56.150Z,99118.53
2022-08-23T11:38:24.859Z,99119.44
2022-08-23T11:44:43.090Z,99121.44
2022-08-23T12:03:49.763Z,99112.94
2022-08-23T13:30:03.377Z,99100.47
2022-08-23T13:47:42.949Z,99100.88
2022-08-23T13:53:11.595Z,99090.56
2022-08-23T13:56:30.315Z,99095.00
2022-08-23T13:58:40.012Z,99095.00
2022-08-23T14:02:51.250Z,99100.00
2022-08-23T14:08:58.629Z,99093.47
2022-08-23T14:13:31.752Z,99091.16
2022-08-23T14:15:13.113Z,99095.56
2022-08-23T14:17:10.643Z,99092.38
2022-08-23T14:36:08.645Z,99075.06
2022-08-23T14:47:25.804Z,99079.63
2022-08-23T14:51:32.262Z,99077.72
2022-08-23T14:53:27.249Z,99077.19
2022-08-23T14:55:03.263Z,99088.25
2022-08-23T15:01:19.574Z,99087.75
2022-08-23T15:03:44.083Z,99098.44
2022-08-23T15:05:14.785Z,99091.75
2022-08-23T15:07:17.164Z,99086.91
2022-08-23T15:14:03.125Z,99101.56
2022-08-23T15:15:46.433Z,99104.28
2022-08-23T15:25:13.397Z,99113.63
2022-08-23T15:27:12.721Z,99110.69
2022-08-23T15:31:33.518Z,99117.44
2022-08-23T15:33:20.455Z,99124.53
2022-08-23T15:35:33.561Z,99108.69
2022-08-23T15:40:16.804Z,99111.13
2022-08-23T15:41:45.572Z,99112.44
2022-08-23T15:43:42.148Z,99121.03
2022-08-23T15:45:32.753Z,99124.00
2022-08-23T15:47:37.733Z,99122.31
2022-08-23T15:49:42.013Z,99130.91
2022-08-23T15:54:23.315Z,99130.13
2022-08-23T15:59:00.252Z,99140.81
2022-08-23T16:01:00.225Z,99129.50
2022-08-23T16:42:14.374Z,99163.22
2022-08-23T16:43:38.109Z,99165.53
2022-08-23T16:45:32.084Z,99168.72
2022-08-23T16:46:52.082Z,99171.25
2022-08-23T16:48:35.485Z,99175.66
2022-08-23T16:53:19.840Z,99165.38
2022-08-23T16:55:03.221Z,99169.41
2022-08-23T16:58:52.378Z,99174.63
2022-08-23T17:00:49.743Z,99175.31
2022-08-23T17:13:43.245Z,99199.81
2022-08-23T17:15:25.653Z,99169.88
2022-08-23T17:17:01.194Z,99176.78
2022-08-23T17:18:54.100Z,99174.06
2022-08-23T17:20:45.240Z,99179.94
2022-08-23T17:24:49.444Z,99172.44
2022-08-23T17:26:57.627Z,99181.84
2022-08-23T17:32:01.532Z,99178.94
2022-08-23T17:33:47.266Z,99186.88
2022-08-23T17:37:51.039Z,99191.06
2022-08-23T17:39:41.948Z,99197.94
2022-08-23T17:41:08.481Z,99198.34
2022-08-23T17:42:42.654Z,99199.81
2022-08-23T17:44:48.057Z,99207.34
2022-08-23T17:46:07.849Z,99203.16
2022-08-23T17:52:52.510Z,99218.84
2022-08-23T17:56:50.130Z,99221.53
2022-08-23T18:04:00.751Z,99226.97
2022-08-23T18:05:26.090Z,99232.38
2022-08-23T18:06:45.525Z,99241.34
2022-08-23T18:08:27.943Z,99254.31
2022-08-23T18:12:51.622Z,99258.88
2022-08-23T18:25:04.825Z,99256.03
2022-08-23T18:30:31.234Z,99265.19
2022-08-23T18:32:28.466Z,99266.47
2022-08-23T18:35:46.362Z,99265.00
2022-08-23T18:39:57.707Z,99282.97
2022-08-23T18:41:39.188Z,99285.22
2022-08-23T18:43:14.552Z,99292.75
2022-08-23T18:45:09.558Z,99285.44
2022-08-23T18:46:51.874Z,99294.63
2022-08-23T18:53:02.306Z,99296.31
2022-08-23T18:54:34.264Z,99291.06
2022-08-23T18:56:58.792Z,99290.25
2022-08-23T18:58:52.878Z,99300.28
2022-08-23T19:18:57.472Z,99283.19
2022-08-23T19:20:38.971Z,99288.59
2022-08-23T19:22:11.067Z,99295.91
2022-08-23T19:23:48.962Z,99292.50
2022-08-23T19:30:50.034Z,99313.13
2022-08-23T19:40:23.516Z,99319.28
2022-08-23T19:42:52.457Z,99323.69
2022-08-23T19:44:23.003Z,99323.88
2022-08-23T20:27:09.412Z,99341.22
2022-08-23T20:28:59.680Z,99343.09
2022-08-23T20:30:18.638Z,99343.44
2022-08-23T20:31:42.689Z,99359.72
2022-08-23T20:33:59.073Z,99366.38
2022-08-23T20:34:37.742Z,99372.84
2022-08-23T20:35:49.906Z,99371.81
2022-08-23T20:37:34.548Z,99362.84
2022-08-23T20:39:26.717Z,99358.44
2022-08-23T20:40:54.756Z,99361.50
2022-08-23T20:43:04.716Z,99368.91
2022-08-23T20:44:26.845Z,99360.84
2022-08-23T20:45:57.960Z,99374.22
2022-08-23T20:49:49.571Z,99362.09
2022-08-23T20:56:52.127Z,99369.41
2022-08-23T20:58:41.402Z,99358.94
2022-08-23T21:01:27.756Z,99372.28
2022-08-23T21:02:53.675Z,99361.84
2022-08-23T21:04:29.986Z,99354.25
2022-08-23T21:07:20.436Z,99354.09
2022-08-23T21:12:53.892Z,99352.78
2022-08-23T21:13:48.862Z,99348.19
2022-08-23T21:15:14.258Z,99352.31
2022-08-23T21:17:09.734Z,99365.81
2022-08-23T21:18:46.454Z,99365.13
2022-08-23T21:20:02.035Z,99366.56
2022-08-23T21:21:41.420Z,99367.38
2022-08-23T21:23:18.248Z,99369.06
2022-08-23T21:25:08.862Z,99370.75
2022-08-23T21:26:40.422Z,99363.16
2022-08-23T21:28:11.202Z,99365.72
2022-08-23T21:29:22.489Z,99372.13
2022-08-23T21:30:50.934Z,99377.75
2022-08-23T21:40:59.781Z,99385.97
2022-08-23T21:42:26.463Z,99384.31
2022-08-23T21:43:53.806Z,99378.44
2022-08-23T21:45:15.335Z,99388.03
2022-08-23T21:50:18.736Z,99381.88
2022-08-23T21:53:10.060Z,99372.72
2022-08-23T21:54:47.585Z,99386.47
2022-08-23T21:56:08.461Z,99384.41
2022-08-23T21:57:38.981Z,99393.91
2022-08-23T21:59:47.831Z,99395.88
2022-08-23T22:05:02.091Z,99385.78
2022-08-23T22:09:38.739Z,99380.19
2022-08-23T22:11:01.193Z,99384.50
2022-08-23T22:13:12.412Z,99377.84
2022-08-23T22:15:03.982Z,99375.72
2022-08-23T22:17:14.015Z,99381.78
2022-08-23T22:18:40.992Z,99377.38
2022-08-23T22:20:51.267Z,99371.78
2022-08-23T22:22:15.006Z,99370.53
2022-08-23T22:23:55.739Z,99360.09
2022-08-23T22:25:21.266Z,99354.28
2022-08-23T22:26:34.342Z,99350.53
2022-08-23T22:27:53.896Z,99346.91
2022-08-23T22:31:21.536Z,99345.69
2022-08-23T22:36:54.034Z,99363.16
2022-08-23T22:38:38.235Z,99353.84
2022-08-23T22:40:06.583Z,99355.88
2022-08-23T22:41:25.667Z,99348.13
2022-08-23T22:42:45.125Z,99353.34
2022-08-23T22:44:19.620Z,99352.72
2022-08-23T22:46:04.418Z,99340.56
2022-08-23T22:50:21.560Z,99348.59